Time;durP1;ratioP1;P1;durP2;ratioP2;P2;SDS_P1;SDS_P2;PMS_P1;PMS_P2;Temp;Humidity;BMP_temperature;BMP_pressure;BME280_temperature;BME280_humidity;BME280_pressure;Samples;Min_cycle;Max_cycle;Signal;HPM_P1;HPM_P2
2021/03/01 05:36:17;;;;;;;43.08;20.80;;;;;;;;;;5151168;22;20040;-69
2021/03/01 05:38:43;;;;;;;44.50;20.85;;;;;;;;;;5069453;28;20023;-68
2021/03/01 05:41:09;;;;;;;38.83;19.10;;;;;;;;;;5070300;28;20032;-69
2021/03/01 05:43:37;;;;;;;41.78;20.83;;;;;;;;;;5071113;28;20028;-70
2021/03/01 05:46:04;;;;;;;45.13;21.60;;;;;;;;;;5071314;28;20086;-71
2021/03/01 05:48:34;;;;;;;46.90;23.10;;;;;;;;;;5071282;28;20370;-71
2021/03/01 05:51:02;;;;;;;46.83;22.33;;;;;;;;;;5053578;28;20025;-70
2021/03/01 05:53:32;;;;;;;46.33;21.90;;;;;;;;;;5054246;28;20831;-70
2021/03/01 05:55:59;;;;;;;47.33;22.10;;;;;;;;;;5067320;28;20036;-72
2021/03/01 05:58:26;;;;;;;41.90;20.98;;;;;;;;;;5071390;28;20021;-71
2021/03/01 06:00:53;;;;;;;40.83;20.25;;;;;;;;;;5071056;28;20488;-70
2021/03/01 06:03:20;;;;;;;43.30;20.33;;;;;;;;;;5070820;28;20068;-71
2021/03/01 06:05:46;;;;;;;43.72;21.25;;;;;;;;;;5069448;28;20036;-70
2021/03/01 06:08:12;;;;;;;45.47;20.75;;;;;;;;;;5052858;28;20137;-69
2021/03/01 06:45:03;;;;;;;39.63;19.10;;;;;;;;;;5529021;23;20281;-71
2021/03/01 06:47:48;;;;;;;39.70;18.05;;;;;;;;;;5068451;28;20020;-68
2021/03/01 06:50:23;;;;;;;40.33;19.98;;;;;;;;;;5069689;28;20103;-70
2021/03/01 06:52:50;;;;;;;38.30;18.77;;;;;;;;;;5051645;28;20025;-70
2021/03/01 06:55:16;;;;;;;33.70;16.25;;;;;;;;;;5073042;28;20032;-69
2021/03/01 06:57:43;;;;;;;32.55;15.00;;;;;;;;;;5073007;28;20035;-69
2021/03/01 07:00:09;;;;;;;31.83;15.85;;;;;;;;;;5072923;28;20036;-71
2021/03/01 07:02:38;;;;;;;35.17;15.32;;;;;;;;;;5054819;28;20119;-71
2021/03/01 07:05:05;;;;;;;40.58;22.02;;;;;;;;;;5072938;28;20381;-69
2021/03/01 07:07:35;;;;;;;180.82;94.28;;;;;;;;;;5073006;28;20473;-70
2021/03/01 07:10:01;;;;;;;77.88;40.17;;;;;;;;;;5072647;28;20039;-71
2021/03/01 07:12:37;;;;;;;52.28;28.35;;;;;;;;;;5072822;28;20077;-71
2021/03/01 07:15:05;;;;;;;39.75;22.45;;;;;;;;;;5071426;28;20028;-71
2021/03/01 07:17:32;;;;;;;49.85;25.05;;;;;;;;;;5072462;28;20070;-70
2021/03/01 07:19:58;;;;;;;33.63;15.90;;;;;;;;;;5072840;28;20032;-70
2021/03/01 07:22:24;;;;;;;31.40;16.83;;;;;;;;;;5072505;28;20372;-68
2021/03/01 07:24:52;;;;;;;37.92;17.10;;;;;;;;;;5071548;28;20119;-72
2021/03/01 07:27:18;;;;;;;44.50;19.08;;;;;;;;;;5072455;28;20151;-70
2021/03/01 07:29:46;;;;;;;30.88;15.48;;;;;;;;;;5072508;28;20044;-69
2021/03/01 07:32:13;;;;;;;43.22;18.70;;;;;;;;;;5072525;28;20035;-69
2021/03/01 07:34:41;;;;;;;32.65;15.63;;;;;;;;;;5072204;28;20028;-71
2021/03/01 07:37:07;;;;;;;33.22;15.10;;;;;;;;;;5054370;28;20051;-69
2021/03/01 07:39:33;;;;;;;40.50;16.85;;;;;;;;;;5072562;28;20102;-68
2021/03/01 07:42:00;;;;;;;36.50;14.95;;;;;;;;;;5072514;28;20082;-69
2021/03/01 07:44:27;;;;;;;37.20;16.02;;;;;;;;;;5056566;28;20393;-69
2021/03/01 07:46:53;;;;;;;23.38;11.50;;;;;;;;;;5066909;28;20037;-69
2021/03/01 07:49:38;;;;;;;21.95;11.23;;;;;;;;;;5053927;28;20097;-69
2021/03/01 07:52:04;;;;;;;24.50;11.02;;;;;;;;;;5052266;28;20059;-68
2021/03/01 07:54:49;;;;;;;23.05;11.77;;;;;;;;;;5034365;28;20094;-69
2021/03/01 07:57:15;;;;;;;23.15;10.80;;;;;;;;;;5052045;28;20025;-71
2021/03/01 07:59:41;;;;;;;21.20;10.07;;;;;;;;;;5034308;28;20144;-70
2021/03/01 08:02:27;;;;;;;34.53;15.10;;;;;;;;;;5052279;28;20025;-69
2021/03/01 08:04:54;;;;;;;44.20;18.60;;;;;;;;;;5035333;28;20136;-68
2021/03/01 08:07:40;;;;;;;63.60;28.08;;;;;;;;;;5056075;28;20539;-68
2021/03/01 08:10:07;;;;;;;31.38;15.77;;;;;;;;;;5055944;28;20021;-69
2021/03/01 08:12:36;;;;;;;26.13;11.45;;;;;;;;;;5055921;28;20029;-68
2021/03/01 08:15:03;;;;;;;21.55;11.35;;;;;;;;;;5055956;28;20032;-70
2021/03/01 08:17:36;;;;;;;21.58;11.18;;;;;;;;;;5055894;28;20029;-70
2021/03/01 08:20:12;;;;;;;21.52;12.23;;;;;;;;;;5037961;28;20064;-69
2021/03/01 08:22:56;;;;;;;30.73;14.77;;;;;;;;;;5056111;28;20083;-69
2021/03/01 08:25:43;;;;;;;29.38;13.38;;;;;;;;;;5055706;28;20388;-70
2021/03/01 08:28:32;;;;;;;32.10;13.93;;;;;;;;;;5055406;28;20052;-71
2021/03/01 08:31:18;;;;;;;29.40;13.10;;;;;;;;;;5055120;28;20036;-73
2021/03/01 08:33:45;;;;;;;26.48;12.23;;;;;;;;;;5059903;28;20465;-69
2021/03/01 08:36:11;;;;;;;24.58;12.13;;;;;;;;;;5055469;28;20350;-69
2021/03/01 08:38:43;;;;;;;23.35;13.07;;;;;;;;;;5037373;28;20040;-68
2021/03/01 08:41:09;;;;;;;26.30;11.98;;;;;;;;;;5055594;28;20029;-69
2021/03/01 08:43:36;;;;;;;22.55;12.18;;;;;;;;;;5055428;28;20037;-69
2021/03/01 08:46:03;;;;;;;24.90;12.73;;;;;;;;;;5055191;28;20136;-69
2021/03/01 08:48:29;;;;;;;31.88;12.90;;;;;;;;;;5057092;28;20033;-70
2021/03/01 08:50:55;;;;;;;25.33;12.80;;;;;;;;;;5037453;28;20052;-73
2021/03/01 08:53:28;;;;;;;29.10;13.25;;;;;;;;;;5055272;28;20107;-72
2021/03/01 08:55:55;;;;;;;27.52;14.50;;;;;;;;;;5054554;28;20090;-73
2021/03/01 08:58:25;;;;;;;28.92;14.77;;;;;;;;;;5055262;28;20067;-71
2021/03/01 09:00:54;;;;;;;29.25;14.82;;;;;;;;;;5055168;28;20028;-71
2021/03/01 09:03:25;;;;;;;31.55;14.27;;;;;;;;;;5045130;28;20392;-71
2021/03/01 09:05:52;;;;;;;26.92;13.40;;;;;;;;;;5075166;28;20029;-73
2021/03/01 09:08:26;;;;;;;36.20;16.00;;;;;;;;;;5071221;28;20085;-72
2021/03/01 09:10:52;;;;;;;31.98;14.45;;;;;;;;;;5073970;28;20029;-73
2021/03/01 09:13:19;;;;;;;39.42;17.83;;;;;;;;;;5056002;28;20064;-74
2021/03/01 09:15:45;;;;;;;43.78;20.02;;;;;;;;;;5056161;28;20032;-75
2021/03/01 09:18:14;;;;;;;42.05;19.27;;;;;;;;;;5054961;28;20043;-74
2021/03/01 09:20:45;;;;;;;607.88;215.32;;;;;;;;;;5058153;28;20112;-72
2021/03/01 09:23:11;;;;;;;765.05;293.00;;;;;;;;;;5054189;28;20037;-71
2021/03/01 09:25:38;;;;;;;634.25;223.25;;;;;;;;;;5044619;28;20161;-69
2021/03/01 09:28:05;;;;;;;163.60;52.58;;;;;;;;;;5056379;28;20025;-73
2021/03/01 09:30:32;;;;;;;255.75;71.70;;;;;;;;;;5054099;28;20025;-71
2021/03/01 09:32:59;;;;;;;37.47;16.88;;;;;;;;;;5068323;28;20037;-71
2021/03/01 09:35:26;;;;;;;31.15;13.68;;;;;;;;;;5056007;28;20594;-70
2021/03/01 09:37:52;;;;;;;48.75;20.30;;;;;;;;;;5073886;28;20021;-70
2021/03/01 09:40:19;;;;;;;29.55;14.65;;;;;;;;;;5073991;28;20055;-71
2021/03/01 09:42:52;;;;;;;30.30;15.68;;;;;;;;;;5074126;28;20465;-70
2021/03/01 09:45:19;;;;;;;28.65;15.52;;;;;;;;;;5072825;28;20040;-71
2021/03/01 09:47:47;;;;;;;32.10;15.80;;;;;;;;;;5073688;28;20020;-70
2021/03/01 09:50:13;;;;;;;28.15;11.57;;;;;;;;;;5073596;28;20103;-70
2021/03/01 09:52:40;;;;;;;31.33;13.15;;;;;;;;;;5073835;28;20028;-69
2021/03/01 09:55:07;;;;;;;25.55;12.27;;;;;;;;;;5073005;28;20024;-72
2021/03/01 09:57:33;;;;;;;26.27;12.02;;;;;;;;;;5070099;28;20469;-70
2021/03/01 09:59:59;;;;;;;25.92;12.57;;;;;;;;;;5073002;28;20082;-70
2021/03/01 10:02:25;;;;;;;20.40;11.40;;;;;;;;;;5073304;28;20108;-70
2021/03/01 10:04:52;;;;;;;21.85;11.13;;;;;;;;;;5073521;28;20024;-70
2021/03/01 10:07:25;;;;;;;22.63;12.13;;;;;;;;;;5073648;28;20036;-70
2021/03/01 10:09:52;;;;;;;23.75;13.75;;;;;;;;;;5073484;28;20078;-70
2021/03/01 10:12:18;;;;;;;17.73;10.18;;;;;;;;;;5055492;28;20032;-69
2021/03/01 10:14:44;;;;;;;25.23;12.88;;;;;;;;;;5055150;28;20072;-68
2021/03/01 10:17:21;;;;;;;23.20;12.32;;;;;;;;;;5073000;28;20551;-72
2021/03/01 10:19:47;;;;;;;19.98;9.82;;;;;;;;;;5073306;28;20024;-71
2021/03/01 10:22:14;;;;;;;57.38;23.48;;;;;;;;;;5054988;28;20024;-72
2021/03/01 10:24:44;;;;;;;43.17;19.30;;;;;;;;;;5072999;28;20169;-70
2021/03/01 10:27:11;;;;;;;42.47;17.60;;;;;;;;;;5072985;28;20477;-71
2021/03/01 10:29:40;;;;;;;49.75;22.52;;;;;;;;;;5072817;28;20109;-72
2021/03/01 10:32:17;;;;;;;39.92;16.55;;;;;;;;;;5074070;28;20029;-72
2021/03/01 10:34:43;;;;;;;37.75;16.75;;;;;;;;;;5072985;28;20395;-71
2021/03/01 10:37:10;;;;;;;14.85;9.38;;;;;;;;;;5072305;28;20031;-68
2021/03/01 10:39:37;;;;;;;35.35;15.80;;;;;;;;;;5072540;28;20464;-71
2021/03/01 10:42:13;;;;;;;30.50;13.48;;;;;;;;;;5070868;28;20054;-73
2021/03/01 10:44:43;;;;;;;28.52;13.43;;;;;;;;;;5071053;28;20392;-71
2021/03/01 10:47:14;;;;;;;21.13;10.68;;;;;;;;;;5072916;28;20032;-71
2021/03/01 10:49:40;;;;;;;22.05;11.05;;;;;;;;;;5050822;28;20025;-72
2021/03/01 10:52:08;;;;;;;22.58;11.57;;;;;;;;;;5050418;28;20117;-72
2021/03/01 10:54:34;;;;;;;36.95;13.75;;;;;;;;;;5052100;28;20052;-71
2021/03/01 10:57:00;;;;;;;25.65;10.75;;;;;;;;;;5034919;28;20025;-70
2021/03/01 10:59:26;;;;;;;45.75;16.75;;;;;;;;;;5046235;28;20055;-73
2021/03/01 11:01:52;;;;;;;47.20;18.70;;;;;;;;;;5052810;28;20083;-71
2021/03/01 11:04:19;;;;;;;112.32;33.22;;;;;;;;;;5045497;28;20036;-69
2021/03/01 11:06:48;;;;;;;34.85;14.05;;;;;;;;;;5032843;28;20075;-71
2021/03/01 11:09:14;;;;;;;24.77;12.90;;;;;;;;;;5060580;28;20052;-70
2021/03/01 11:11:41;;;;;;;77.85;31.23;;;;;;;;;;5071321;28;20434;-70
2021/03/01 11:14:07;;;;;;;24.52;11.63;;;;;;;;;;5060633;28;20025;-71
2021/03/01 11:16:34;;;;;;;18.65;11.32;;;;;;;;;;5052292;28;20032;-71
2021/03/01 11:19:00;;;;;;;26.00;12.82;;;;;;;;;;5052592;28;20028;-71
2021/03/01 11:21:27;;;;;;;27.48;14.10;;;;;;;;;;5052583;28;20033;-72
2021/03/01 11:23:53;;;;;;;38.40;16.42;;;;;;;;;;5052493;28;20021;-71
2021/03/01 11:26:19;;;;;;;25.23;12.38;;;;;;;;;;5034722;28;20128;-69
2021/03/01 11:28:45;;;;;;;23.90;12.05;;;;;;;;;;5052318;28;20075;-72
2021/03/01 11:31:11;;;;;;;24.65;11.88;;;;;;;;;;5052464;28;20079;-74
2021/03/01 11:33:37;;;;;;;27.40;13.48;;;;;;;;;;5034488;28;20033;-71
2021/03/01 11:36:04;;;;;;;27.70;15.20;;;;;;;;;;5031290;28;20033;-69
2021/03/01 11:38:30;;;;;;;29.05;18.88;;;;;;;;;;5050957;28;20379;-70
2021/03/01 11:40:56;;;;;;;18.38;10.63;;;;;;;;;;5037544;28;20512;-69
2021/03/01 11:43:22;;;;;;;19.10;11.45;;;;;;;;;;5036644;28;20033;-74
2021/03/01 11:45:48;;;;;;;20.13;11.68;;;;;;;;;;5053174;28;20072;-70
2021/03/01 11:48:15;;;;;;;19.75;10.63;;;;;;;;;;5055809;28;20497;-70
2021/03/01 11:50:42;;;;;;;19.30;10.48;;;;;;;;;;5056159;28;20025;-71
2021/03/01 11:53:08;;;;;;;22.90;11.85;;;;;;;;;;5056151;28;20032;-69
2021/03/01 11:55:34;;;;;;;22.08;12.25;;;;;;;;;;5055827;28;20025;-71
2021/03/01 11:58:00;;;;;;;47.40;28.75;;;;;;;;;;5055818;28;20439;-71
2021/03/01 12:00:26;;;;;;;34.35;21.02;;;;;;;;;;5056055;28;20029;-69
2021/03/01 12:02:52;;;;;;;27.55;15.32;;;;;;;;;;5055863;28;20025;-68
2021/03/01 12:05:18;;;;;;;25.15;12.85;;;;;;;;;;5055500;28;20120;-70
2021/03/01 12:07:45;;;;;;;83.18;51.65;;;;;;;;;;5060020;28;20445;-70
2021/03/01 12:10:11;;;;;;;24.90;12.77;;;;;;;;;;5057767;28;20028;-69
2021/03/01 12:12:37;;;;;;;26.83;13.30;;;;;;;;;;5075760;28;20040;-68
2021/03/01 12:15:04;;;;;;;23.95;12.15;;;;;;;;;;5062476;28;20615;-70
2021/03/01 12:17:30;;;;;;;23.25;12.75;;;;;;;;;;5055630;28;20485;-70
2021/03/01 12:19:56;;;;;;;21.40;13.63;;;;;;;;;;5060964;28;20035;-70
2021/03/01 12:22:22;;;;;;;16.95;10.60;;;;;;;;;;5073787;28;20499;-68
2021/03/01 12:24:48;;;;;;;19.40;10.93;;;;;;;;;;5070862;28;20040;-69
2021/03/01 12:27:14;;;;;;;20.40;11.52;;;;;;;;;;5074055;28;20020;-68
2021/03/01 12:29:40;;;;;;;26.83;12.38;;;;;;;;;;5074843;28;20037;-72
2021/03/01 12:32:06;;;;;;;27.63;13.30;;;;;;;;;;5074305;28;20153;-72
2021/03/01 12:34:34;;;;;;;40.25;18.23;;;;;;;;;;5074201;28;20024;-70
2021/03/01 12:37:00;;;;;;;36.63;17.67;;;;;;;;;;5072234;28;20024;-71
2021/03/01 12:39:27;;;;;;;29.10;14.32;;;;;;;;;;5074562;28;20032;-72
2021/03/01 12:41:52;;;;;;;86.82;34.85;;;;;;;;;;5074692;28;20068;-72
2021/03/01 12:44:20;;;;;;;46.92;19.77;;;;;;;;;;5056278;28;20079;-71
2021/03/01 12:46:46;;;;;;;66.97;27.60;;;;;;;;;;5057078;28;20397;-73
2021/03/01 12:49:12;;;;;;;46.22;16.92;;;;;;;;;;5074661;28;20036;-71
2021/03/01 12:51:37;;;;;;;26.30;12.05;;;;;;;;;;5074537;28;20461;-72
2021/03/01 12:54:04;;;;;;;28.27;11.43;;;;;;;;;;5069056;28;20024;-71
2021/03/01 12:56:31;;;;;;;350.08;113.38;;;;;;;;;;5095084;28;20032;-71
2021/03/01 12:58:56;;;;;;;71.28;27.75;;;;;;;;;;5094797;28;20025;-71
2021/03/01 13:01:22;;;;;;;35.13;15.65;;;;;;;;;;5086968;28;20039;-73
2021/03/01 13:03:49;;;;;;;25.92;11.82;;;;;;;;;;5063235;28;20060;-70
2021/03/01 13:06:15;;;;;;;18.90;8.52;;;;;;;;;;5056682;28;20036;-72
2021/03/01 13:08:41;;;;;;;22.88;10.73;;;;;;;;;;5065444;28;20403;-71
2021/03/01 13:11:07;;;;;;;22.88;10.90;;;;;;;;;;5073884;28;20025;-71
2021/03/01 13:13:33;;;;;;;23.63;11.27;;;;;;;;;;5074634;28;20491;-70
2021/03/01 13:15:59;;;;;;;26.88;11.23;;;;;;;;;;5072031;28;20044;-71
2021/03/01 13:18:25;;;;;;;26.75;11.80;;;;;;;;;;5073665;28;20033;-70
2021/03/01 13:20:51;;;;;;;26.13;12.00;;;;;;;;;;5073633;28;20086;-69
2021/03/01 13:23:17;;;;;;;28.00;13.82;;;;;;;;;;5074485;28;20107;-72
2021/03/01 13:25:44;;;;;;;26.13;14.07;;;;;;;;;;5074598;28;20032;-70
2021/03/01 13:28:11;;;;;;;27.45;13.02;;;;;;;;;;5074351;28;20036;-71
2021/03/01 13:30:37;;;;;;;27.52;12.85;;;;;;;;;;5074286;28;20039;-69
2021/03/01 13:33:03;;;;;;;31.05;16.10;;;;;;;;;;5056188;28;20119;-72
2021/03/01 13:35:29;;;;;;;34.47;17.60;;;;;;;;;;5056409;28;20081;-71
2021/03/01 13:37:55;;;;;;;36.25;17.92;;;;;;;;;;5074389;28;20042;-70
2021/03/01 13:40:21;;;;;;;34.28;15.93;;;;;;;;;;5073956;28;20032;-71
2021/03/01 13:42:47;;;;;;;33.97;15.93;;;;;;;;;;5074163;28;20389;-73
2021/03/01 13:45:14;;;;;;;32.00;15.35;;;;;;;;;;5074200;28;20105;-70
2021/03/01 13:47:42;;;;;;;41.38;21.15;;;;;;;;;;5074077;28;20026;-70
2021/03/01 13:50:08;;;;;;;41.97;20.20;;;;;;;;;;5074240;28;20040;-71
2021/03/01 13:52:34;;;;;;;30.98;15.18;;;;;;;;;;5074031;28;20036;-71
2021/03/01 13:55:03;;;;;;;31.05;15.68;;;;;;;;;;5071050;28;20042;-73
2021/03/01 13:57:29;;;;;;;35.97;18.58;;;;;;;;;;5044228;28;20510;-75
2021/03/01 13:59:55;;;;;;;32.22;16.30;;;;;;;;;;5064359;28;20040;-73
2021/03/01 14:02:21;;;;;;;44.70;23.33;;;;;;;;;;5071990;28;20031;-73
2021/03/01 14:04:47;;;;;;;35.38;16.63;;;;;;;;;;5072952;28;20446;-73
2021/03/01 14:07:13;;;;;;;53.40;30.48;;;;;;;;;;5073272;28;20402;-70
2021/03/01 14:09:44;;;;;;;40.78;18.58;;;;;;;;;;5072175;28;20032;-76
2021/03/01 14:12:10;;;;;;;42.22;23.45;;;;;;;;;;5056133;28;20043;-72
2021/03/01 14:14:36;;;;;;;48.70;23.70;;;;;;;;;;5070253;28;20029;-75
2021/03/01 14:17:02;;;;;;;40.00;17.80;;;;;;;;;;5071265;28;20020;-71
2021/03/01 14:19:28;;;;;;;59.30;30.40;;;;;;;;;;5072099;28;20052;-70
2021/03/01 14:21:54;;;;;;;56.92;27.92;;;;;;;;;;5072393;28;20021;-71
2021/03/01 14:24:20;;;;;;;63.05;30.33;;;;;;;;;;5069379;28;20024;-72
2021/03/01 14:26:46;;;;;;;46.10;21.17;;;;;;;;;;5071984;28;20086;-70
2021/03/01 14:29:12;;;;;;;147.60;61.50;;;;;;;;;;5072517;28;20067;-70
2021/03/01 14:31:38;;;;;;;83.15;34.45;;;;;;;;;;5072283;28;20021;-72
2021/03/01 14:34:04;;;;;;;53.92;26.17;;;;;;;;;;5072236;28;20047;-74
2021/03/01 14:36:30;;;;;;;43.47;19.17;;;;;;;;;;5071701;28;20081;-70
2021/03/01 14:38:56;;;;;;;47.78;22.35;;;;;;;;;;5072681;28;20028;-72
2021/03/01 14:41:22;;;;;;;52.70;23.27;;;;;;;;;;5073334;28;20055;-71
2021/03/01 14:43:48;;;;;;;51.80;21.80;;;;;;;;;;5072968;28;20170;-71
2021/03/01 14:46:14;;;;;;;58.63;23.95;;;;;;;;;;5065996;28;20044;-70
2021/03/01 14:48:40;;;;;;;64.25;26.55;;;;;;;;;;5068513;28;20021;-71
2021/03/01 14:51:06;;;;;;;54.25;23.58;;;;;;;;;;5070934;28;20138;-70
2021/03/01 14:53:32;;;;;;;60.05;25.33;;;;;;;;;;5071246;28;20051;-74
2021/03/01 14:55:59;;;;;;;67.38;28.05;;;;;;;;;;5071383;28;20158;-71
2021/03/01 14:58:25;;;;;;;73.22;30.17;;;;;;;;;;5069301;28;20086;-69
2021/03/01 15:00:51;;;;;;;68.28;27.48;;;;;;;;;;5068294;28;20029;-69
2021/03/01 15:03:17;;;;;;;68.40;28.38;;;;;;;;;;5072042;28;20052;-69
2021/03/01 15:05:46;;;;;;;60.47;28.05;;;;;;;;;;5070783;28;20075;-70
2021/03/01 16:52:13;;;;;;;60.22;25.25;;;;;;;;;;5272866;22;20694;-74
2021/03/01 16:54:49;;;;;;;98.63;35.03;;;;;;;;;;4973400;28;20406;-70
2021/03/01 16:57:24;;;;;;;80.63;30.88;;;;;;;;;;4970353;28;20101;-69
2021/03/01 16:59:50;;;;;;;130.50;46.00;;;;;;;;;;4958416;28;20118;-72
2021/03/01 17:02:21;;;;;;;82.18;30.00;;;;;;;;;;4958321;28;20038;-70
2021/03/01 17:04:48;;;;;;;80.10;31.75;;;;;;;;;;4971268;28;20046;-74
2021/03/01 17:07:28;;;;;;;86.43;33.13;;;;;;;;;;4958140;28;20146;-71
2021/03/01 17:10:01;;;;;;;83.05;33.58;;;;;;;;;;4957791;28;20038;-74
2021/03/01 17:12:38;;;;;;;77.28;32.80;;;;;;;;;;4953158;28;20070;-76
2021/03/01 17:15:10;;;;;;;80.20;34.45;;;;;;;;;;4958137;28;20026;-75
2021/03/01 17:17:42;;;;;;;124.70;46.50;;;;;;;;;;4957457;28;20121;-75
2021/03/01 17:20:09;;;;;;;153.52;56.63;;;;;;;;;;4957901;28;20058;-74
2021/03/01 17:22:36;;;;;;;95.13;39.35;;;;;;;;;;4958432;28;20137;-75
2021/03/01 17:25:04;;;;;;;93.97;38.13;;;;;;;;;;4958244;28;20027;-73
2021/03/01 17:27:35;;;;;;;95.28;38.20;;;;;;;;;;4957941;28;20033;-71
2021/03/01 17:30:22;;;;;;;83.00;33.58;;;;;;;;;;4958140;28;20035;-74
2021/03/01 17:33:25;;;;;;;89.47;36.65;;;;;;;;;;4957977;28;20035;-74
2021/03/01 17:35:54;;;;;;;87.30;37.15;;;;;;;;;;4958251;28;20027;-73
2021/03/01 17:38:25;;;;;;;80.28;32.83;;;;;;;;;;4974690;28;20027;-72
2021/03/01 17:41:26;;;;;;;77.53;32.13;;;;;;;;;;4958842;28;20504;-73
2021/03/01 17:43:55;;;;;;;68.32;30.15;;;;;;;;;;4893307;28;20042;-73
2021/03/01 17:46:27;;;;;;;73.78;30.55;;;;;;;;;;4958032;28;20035;-72
2021/03/01 17:49:04;;;;;;;78.22;30.02;;;;;;;;;;4958273;28;20023;-73
2021/03/01 17:51:56;;;;;;;84.38;39.55;;;;;;;;;;4967165;28;20105;-72
2021/03/01 17:54:42;;;;;;;69.22;28.65;;;;;;;;;;4977427;28;20060;-72
2021/03/01 17:57:17;;;;;;;74.65;31.50;;;;;;;;;;4974204;28;20045;-71
2021/03/01 18:00:00;;;;;;;74.35;32.13;;;;;;;;;;4976937;28;20023;-72
2021/03/01 18:02:36;;;;;;;66.00;27.10;;;;;;;;;;4993749;28;20034;-73
2021/03/01 18:05:04;;;;;;;66.30;27.95;;;;;;;;;;4976642;28;20041;-72
2021/03/01 18:07:32;;;;;;;67.00;27.05;;;;;;;;;;4994736;28;20027;-70
2021/03/01 18:09:58;;;;;;;60.92;25.25;;;;;;;;;;4976916;28;20479;-72
2021/03/01 18:12:24;;;;;;;46.70;20.95;;;;;;;;;;4990676;28;20026;-70
2021/03/01 18:14:51;;;;;;;59.47;25.83;;;;;;;;;;4976422;28;20030;-72
2021/03/01 18:17:19;;;;;;;54.67;25.52;;;;;;;;;;4976399;28;20391;-70
2021/03/01 18:19:47;;;;;;;88.25;38.05;;;;;;;;;;4976661;28;20023;-72
2021/03/01 18:22:13;;;;;;;70.55;31.73;;;;;;;;;;4975572;28;20065;-70
2021/03/01 18:24:43;;;;;;;59.85;26.65;;;;;;;;;;4976611;28;20073;-70
2021/03/01 18:27:11;;;;;;;70.55;32.13;;;;;;;;;;4976178;28;20030;-70
2021/03/01 18:29:40;;;;;;;73.90;36.72;;;;;;;;;;4976783;28;20038;-73
2021/03/01 18:32:09;;;;;;;55.28;28.30;;;;;;;;;;4994003;28;20434;-73
2021/03/01 18:34:37;;;;;;;51.95;24.08;;;;;;;;;;4976539;28;20034;-73
2021/03/01 18:37:08;;;;;;;41.05;19.23;;;;;;;;;;4976663;28;20034;-71
2021/03/01 18:39:41;;;;;;;37.35;18.27;;;;;;;;;;4976694;28;20062;-70
2021/03/01 18:42:10;;;;;;;37.03;18.15;;;;;;;;;;4976457;28;20399;-72
2021/03/01 18:44:40;;;;;;;38.30;17.70;;;;;;;;;;4976290;28;20029;-71
2021/03/01 18:47:09;;;;;;;44.22;21.05;;;;;;;;;;4974396;28;20034;-70
2021/03/01 18:49:38;;;;;;;38.13;18.88;;;;;;;;;;4975940;28;20034;-71
2021/03/01 18:52:04;;;;;;;61.60;25.90;;;;;;;;;;4974082;28;20111;-71
2021/03/01 18:54:33;;;;;;;60.35;26.67;;;;;;;;;;4976425;28;20033;-72
2021/03/01 18:56:59;;;;;;;56.17;26.48;;;;;;;;;;4975942;28;20030;-70
2021/03/01 18:59:30;;;;;;;57.83;28.70;;;;;;;;;;4976095;28;20504;-72
2021/03/01 19:01:56;;;;;;;62.05;27.48;;;;;;;;;;4976187;28;20029;-71
2021/03/01 19:04:31;;;;;;;61.65;28.85;;;;;;;;;;4976190;28;20026;-70
2021/03/01 19:06:57;;;;;;;74.63;29.75;;;;;;;;;;4975851;28;20049;-69
2021/03/01 19:09:29;;;;;;;66.80;28.00;;;;;;;;;;4975890;28;20022;-73
2021/03/01 19:12:00;;;;;;;57.25;25.48;;;;;;;;;;4975774;28;20383;-73
2021/03/01 19:14:31;;;;;;;57.00;26.63;;;;;;;;;;4957894;28;20058;-74
2021/03/01 19:17:10;;;;;;;59.97;26.05;;;;;;;;;;4956489;28;20031;-74
2021/03/01 19:19:46;;;;;;;66.97;28.80;;;;;;;;;;4956063;28;20497;-74
2021/03/01 19:22:12;;;;;;;55.20;25.77;;;;;;;;;;4956960;28;20031;-70
2021/03/01 19:24:45;;;;;;;57.25;26.70;;;;;;;;;;4956414;28;20110;-70
2021/03/01 19:27:12;;;;;;;59.00;27.52;;;;;;;;;;4956681;28;20054;-69
2021/03/01 19:29:40;;;;;;;63.28;28.58;;;;;;;;;;4973805;28;20022;-72
2021/03/01 19:32:07;;;;;;;72.97;33.40;;;;;;;;;;4963569;28;20030;-70
2021/03/01 19:34:36;;;;;;;79.13;32.58;;;;;;;;;;4966321;28;20021;-72
2021/03/01 19:37:03;;;;;;;80.20;33.67;;;;;;;;;;4974658;28;20023;-72
2021/03/01 19:39:29;;;;;;;81.60;32.28;;;;;;;;;;4975078;28;20019;-72
2021/03/01 19:42:02;;;;;;;68.93;31.00;;;;;;;;;;4975099;28;20375;-72
